Time;durP1;ratioP1;P1;durP2;ratioP2;P2;SDS_P1;SDS_P2;PMS_P1;PMS_P2;Temp;Humidity;BMP_temperature;BMP_pressure;BME280_temperature;BME280_humidity;BME280_pressure;Samples;Min_cycle;Max_cycle;Signal;HPM_P1;HPM_P2
2024/03/27 00:01:31;;;;;;;4.50;3.47;;;6.70;99.90;;;;;;4963584;28;20084;-50
2024/03/27 00:03:57;;;;;;;6.07;3.28;;;6.70;99.90;;;;;;4945652;28;20089;-50
2024/03/27 00:06:22;;;;;;;5.65;3.75;;;6.70;99.90;;;;;;4947436;28;20445;-53
2024/03/27 00:08:49;;;;;;;5.43;3.70;;;6.70;99.90;;;;;;4971385;28;20050;-49
2024/03/27 00:11:15;;;;;;;6.10;3.72;;;6.60;99.90;;;;;;4963716;28;20216;-48
2024/03/27 00:13:41;;;;;;;4.25;3.55;;;6.60;99.90;;;;;;4966902;28;20041;-52
2024/03/27 00:16:07;;;;;;;4.82;3.97;;;6.60;99.90;;;;;;4978158;28;20486;-51
2024/03/27 00:18:33;;;;;;;5.47;3.55;;;6.60;99.90;;;;;;4968210;28;20029;-49
2024/03/27 00:20:59;;;;;;;4.97;3.63;;;6.60;99.90;;;;;;4983060;28;20418;-49
2024/03/27 00:23:24;;;;;;;6.70;3.72;;;6.60;99.90;;;;;;4965194;28;20045;-52
2024/03/27 00:25:58;;;;;;;5.20;4.10;;;6.50;99.90;;;;;;4966779;28;20026;-50
2024/03/27 00:28:24;;;;;;;4.05;3.38;;;6.50;99.90;;;;;;4992841;28;20034;-53
2024/03/27 00:30:49;;;;;;;5.57;3.70;;;6.50;99.90;;;;;;4963636;28;20030;-51
2024/03/27 00:33:15;;;;;;;7.55;3.55;;;6.50;99.90;;;;;;4959013;28;20514;-50
2024/03/27 00:35:42;;;;;;;4.70;3.38;;;6.50;99.90;;;;;;4978147;28;20026;-52
2024/03/27 00:38:08;;;;;;;6.57;4.15;;;6.40;99.90;;;;;;4959817;28;20053;-48
2024/03/27 00:40:34;;;;;;;7.95;3.50;;;6.40;99.90;;;;;;4980884;28;20487;-53
2024/03/27 00:42:59;;;;;;;4.90;3.35;;;6.40;99.90;;;;;;4960266;28;20042;-48
2024/03/27 00:45:25;;;;;;;7.07;4.07;;;6.30;99.90;;;;;;4959617;28;20069;-48
2024/03/27 00:47:50;;;;;;;5.80;3.88;;;6.20;99.90;;;;;;4977435;28;20037;-50
2024/03/27 00:50:16;;;;;;;6.80;4.03;;;6.20;99.90;;;;;;4954734;28;20180;-53
2024/03/27 00:52:42;;;;;;;5.05;4.03;;;6.20;99.90;;;;;;4954694;28;20068;-50
2024/03/27 00:55:08;;;;;;;3.83;3.40;;;6.20;99.90;;;;;;4984863;28;20026;-52
2024/03/27 00:57:33;;;;;;;6.25;4.35;;;6.20;99.90;;;;;;4955326;28;20033;-46
2024/03/27 00:59:59;;;;;;;5.13;4.55;;;6.20;99.90;;;;;;4976292;28;20034;-46
2024/03/27 01:02:24;;;;;;;5.82;4.30;;;6.10;99.90;;;;;;4956970;28;20034;-52
2024/03/27 01:04:50;;;;;;;5.60;4.10;;;6.10;99.90;;;;;;4951116;28;20041;-48
2024/03/27 01:07:16;;;;;;;5.72;4.00;;;6.10;99.90;;;;;;4986596;28;20125;-47
2024/03/27 01:09:42;;;;;;;5.18;4.00;;;6.00;99.90;;;;;;4956285;28;20064;-49
2024/03/27 01:12:08;;;;;;;5.38;4.07;;;6.00;99.90;;;;;;4973882;28;20042;-50
2024/03/27 01:14:34;;;;;;;5.45;4.13;;;6.00;99.90;;;;;;4954644;28;20185;-48
2024/03/27 01:16:59;;;;;;;4.82;4.22;;;5.90;99.90;;;;;;4952675;28;22068;-49
2024/03/27 01:19:25;;;;;;;4.85;4.10;;;5.90;99.90;;;;;;4974649;28;20521;-49
2024/03/27 01:21:50;;;;;;;5.32;4.05;;;5.90;99.90;;;;;;4946520;28;20040;-49
2024/03/27 01:24:16;;;;;;;6.50;4.35;;;5.90;99.90;;;;;;4943843;28;20041;-46
2024/03/27 01:26:41;;;;;;;7.03;4.05;;;5.90;99.90;;;;;;4970995;28;20026;-49
2024/03/27 01:29:07;;;;;;;6.90;4.57;;;5.90;99.90;;;;;;4933315;28;20033;-54
2024/03/27 01:31:32;;;;;;;8.27;4.15;;;5.80;99.90;;;;;;4976868;28;20116;-50
2024/03/27 01:33:58;;;;;;;4.85;3.95;;;5.80;99.90;;;;;;4942968;28;20066;-49
2024/03/27 01:36:23;;;;;;;5.20;4.53;;;5.80;99.90;;;;;;4935293;28;20022;-49
2024/03/27 01:38:49;;;;;;;8.13;4.30;;;5.80;99.90;;;;;;4965921;28;20101;-50
2024/03/27 01:41:15;;;;;;;6.70;4.15;;;5.80;99.90;;;;;;4942584;28;20034;-49
2024/03/27 01:43:41;;;;;;;4.93;4.43;;;5.80;99.90;;;;;;4948127;28;20038;-59
2024/03/27 01:46:10;;;;;;;5.30;4.30;;;5.80;99.90;;;;;;4969857;28;20518;-49
2024/03/27 01:48:36;;;;;;;6.32;4.57;;;5.80;99.90;;;;;;4928159;28;20108;-46
2024/03/27 01:51:04;;;;;;;4.93;4.22;;;5.80;99.90;;;;;;4963896;28;20494;-49
2024/03/27 01:53:31;;;;;;;5.72;4.55;;;5.80;99.90;;;;;;4934128;28;20038;-49
2024/03/27 01:55:56;;;;;;;7.75;4.28;;;5.80;99.90;;;;;;4930710;28;21447;-50
2024/03/27 01:58:22;;;;;;;5.43;3.83;;;5.80;99.90;;;;;;4972153;28;20060;-46
2024/03/27 02:00:48;;;;;;;8.57;4.28;;;5.70;99.90;;;;;;4932834;28;20083;-50
2024/03/27 02:03:14;;;;;;;6.10;4.38;;;5.70;99.90;;;;;;4937894;28;20033;-59
2024/03/27 02:05:41;;;;;;;5.35;4.13;;;5.70;99.90;;;;;;4966868;28;20041;-49
2024/03/27 02:08:07;;;;;;;5.70;4.53;;;5.70;99.90;;;;;;4933626;28;20189;-51
2024/03/27 02:10:33;;;;;;;6.65;4.53;;;5.70;99.90;;;;;;4969170;28;20566;-49
2024/03/27 02:12:58;;;;;;;5.28;4.20;;;5.70;99.90;;;;;;4930108;28;20096;-48
2024/03/27 02:15:24;;;;;;;5.00;4.03;;;5.60;99.90;;;;;;4933386;28;20530;-53
2024/03/27 02:17:50;;;;;;;4.70;4.20;;;5.70;99.90;;;;;;4958490;28;20030;-48
2024/03/27 02:20:16;;;;;;;5.53;3.78;;;5.70;99.90;;;;;;4926700;28;20061;-48
2024/03/27 02:22:42;;;;;;;5.82;4.30;;;5.70;99.90;;;;;;4944302;28;20518;-59
2024/03/27 02:25:17;;;;;;;5.95;4.13;;;5.70;99.90;;;;;;4940523;28;20029;-47
2024/03/27 02:27:44;;;;;;;7.43;4.23;;;5.70;99.90;;;;;;4929262;28;20064;-46
2024/03/27 02:30:10;;;;;;;6.45;4.35;;;5.70;99.90;;;;;;4951051;28;20368;-59
2024/03/27 02:32:35;;;;;;;6.90;4.28;;;5.70;99.90;;;;;;4935056;28;20129;-49
2024/03/27 02:35:01;;;;;;;5.93;4.78;;;5.70;99.90;;;;;;4923451;28;22294;-49
2024/03/27 02:37:27;;;;;;;5.40;4.60;;;5.60;99.90;;;;;;4964602;28;20064;-52
2024/03/27 02:39:52;;;;;;;6.97;5.00;;;5.60;99.90;;;;;;4921051;28;20037;-52
2024/03/27 02:42:18;;;;;;;5.00;4.35;;;5.50;99.90;;;;;;4922324;28;20117;-48
2024/03/27 02:44:43;;;;;;;5.78;4.45;;;5.50;99.90;;;;;;4957911;28;20033;-50
2024/03/27 02:47:09;;;;;;;5.95;4.20;;;5.50;99.90;;;;;;4920733;28;20095;-46
2024/03/27 02:49:34;;;;;;;7.22;4.88;;;5.50;99.90;;;;;;4960722;28;20072;-52
2024/03/27 02:52:00;;;;;;;5.95;4.70;;;5.50;99.90;;;;;;4919833;28;20518;-49
2024/03/27 02:54:26;;;;;;;5.53;4.57;;;5.50;99.90;;;;;;4917569;28;20056;-51
2024/03/27 02:56:51;;;;;;;4.25;3.72;;;5.40;99.90;;;;;;4955136;28;20034;-49
2024/03/27 02:59:17;;;;;;;5.53;4.38;;;5.40;99.90;;;;;;4917804;28;20054;-51
2024/03/27 03:01:42;;;;;;;5.05;4.30;;;5.40;99.90;;;;;;4926815;28;20142;-58
2024/03/27 03:04:08;;;;;;;6.53;4.72;;;5.40;99.90;;;;;;4944805;28;20038;-50
2024/03/27 03:06:36;;;;;;;7.65;3.85;;;5.40;99.90;;;;;;4911957;28;21533;-47
2024/03/27 03:09:02;;;;;;;5.53;3.80;;;5.40;99.90;;;;;;4953316;28;20121;-49
2024/03/27 03:11:27;;;;;;;5.47;4.22;;;5.30;99.90;;;;;;4911726;28;20099;-47
2024/03/27 03:13:53;;;;;;;9.25;4.50;;;5.30;99.90;;;;;;4914329;28;20040;-48
2024/03/27 03:16:19;;;;;;;7.65;4.50;;;5.30;99.90;;;;;;4957204;28;20387;-48
2024/03/27 03:18:48;;;;;;;5.82;4.35;;;5.30;99.90;;;;;;4917072;28;20029;-51
2024/03/27 03:21:13;;;;;;;5.63;4.43;;;5.40;99.90;;;;;;4931772;28;20022;-58
2024/03/27 03:23:39;;;;;;;5.45;4.32;;;5.40;99.90;;;;;;4934570;28;20095;-49
2024/03/27 03:26:04;;;;;;;6.50;4.72;;;5.30;99.90;;;;;;4911847;28;20055;-47
2024/03/27 03:28:30;;;;;;;6.35;4.35;;;5.30;99.90;;;;;;4954760;28;20500;-45
2024/03/27 03:31:03;;;;;;;6.22;4.22;;;5.30;99.90;;;;;;4904459;28;20080;-47
2024/03/27 03:33:29;;;;;;;7.32;4.90;;;5.30;99.90;;;;;;4905958;28;21407;-48
2024/03/27 03:35:58;;;;;;;6.28;4.78;;;5.30;99.90;;;;;;4946406;28;20038;-45
2024/03/27 03:38:25;;;;;;;6.28;4.82;;;5.30;99.90;;;;;;4907719;28;20054;-48
2024/03/27 03:41:05;;;;;;;5.60;4.55;;;5.30;99.90;;;;;;4910385;28;20113;-45
2024/03/27 03:43:31;;;;;;;4.22;3.67;;;5.20;99.90;;;;;;4955954;28;20107;-45
2024/03/27 03:45:56;;;;;;;6.30;4.85;;;5.20;99.90;;;;;;4905528;28;20117;-45
2024/03/27 03:48:22;;;;;;;6.07;4.05;;;5.20;99.90;;;;;;4905605;28;20100;-49
2024/03/27 03:50:48;;;;;;;5.60;4.30;;;5.20;99.90;;;;;;4948484;28;20598;-49
2024/03/27 03:53:14;;;;;;;6.18;4.20;;;5.10;99.90;;;;;;4905353;28;20536;-48
2024/03/27 03:55:43;;;;;;;7.78;4.93;;;5.20;99.90;;;;;;4945744;28;20052;-59
2024/03/27 03:58:09;;;;;;;5.80;4.43;;;5.10;99.90;;;;;;4943524;28;20022;-48
2024/03/27 04:00:35;;;;;;;5.38;4.20;;;5.10;99.90;;;;;;4902916;28;22030;-52
2024/03/27 04:03:01;;;;;;;7.72;4.78;;;5.10;99.90;;;;;;4954918;28;20038;-51
2024/03/27 04:05:26;;;;;;;5.57;4.15;;;5.10;99.90;;;;;;4899303;28;20580;-46
2024/03/27 04:07:52;;;;;;;6.22;4.68;;;5.10;99.90;;;;;;4899808;28;20030;-50
2024/03/27 04:10:17;;;;;;;6.50;5.07;;;5.10;99.90;;;;;;4960437;28;20104;-46
2024/03/27 04:12:43;;;;;;;6.60;4.68;;;5.00;99.90;;;;;;4897275;28;20034;-50
2024/03/27 04:15:11;;;;;;;6.00;4.18;;;5.00;99.90;;;;;;4947566;28;20135;-57
2024/03/27 04:17:38;;;;;;;8.02;4.57;;;5.00;99.90;;;;;;4921783;28;20014;-49
2024/03/27 04:20:10;;;;;;;6.60;4.60;;;5.00;99.90;;;;;;4898266;28;20634;-50
2024/03/27 04:22:39;;;;;;;7.97;4.65;;;4.90;99.90;;;;;;4951745;28;20506;-48
2024/03/27 04:25:05;;;;;;;4.55;4.10;;;5.00;99.90;;;;;;4918939;28;20030;-50
2024/03/27 04:27:31;;;;;;;6.35;4.47;;;4.90;99.90;;;;;;4899878;28;21442;-49
2024/03/27 04:29:57;;;;;;;7.82;5.20;;;4.90;99.90;;;;;;4944512;28;20038;-49
2024/03/27 04:32:26;;;;;;;5.68;4.90;;;4.80;99.90;;;;;;4893089;28;20425;-47
2024/03/27 04:34:51;;;;;;;6.60;4.22;;;4.80;99.90;;;;;;4889515;28;20490;-52
2024/03/27 04:37:17;;;;;;;5.43;4.82;;;4.80;99.90;;;;;;4953396;28;20033;-47
2024/03/27 04:39:43;;;;;;;5.75;4.40;;;4.70;99.90;;;;;;4894587;28;20026;-49
2024/03/27 04:42:10;;;;;;;7.57;5.28;;;4.70;99.90;;;;;;4940570;28;20038;-57
2024/03/27 04:44:38;;;;;;;7.25;5.13;;;4.70;99.90;;;;;;4907452;28;20060;-46
2024/03/27 04:47:04;;;;;;;6.20;4.60;;;4.70;99.90;;;;;;4890345;28;21779;-47
2024/03/27 04:49:29;;;;;;;6.10;4.72;;;4.70;99.90;;;;;;4948455;28;20025;-47
2024/03/27 04:51:55;;;;;;;8.25;4.70;;;4.70;99.90;;;;;;4889175;28;20124;-50
2024/03/27 04:54:22;;;;;;;7.25;5.20;;;4.70;99.90;;;;;;4882310;28;20107;-57
2024/03/27 04:56:48;;;;;;;5.50;4.35;;;4.60;99.90;;;;;;4939544;28;20017;-49
2024/03/27 04:59:13;;;;;;;6.22;4.72;;;4.60;99.90;;;;;;4885976;28;20018;-49
2024/03/27 05:01:39;;;;;;;7.03;4.70;;;4.60;99.90;;;;;;4935715;28;20026;-58
2024/03/27 05:04:05;;;;;;;6.90;4.78;;;4.60;99.90;;;;;;4887308;28;20399;-48
2024/03/27 05:06:30;;;;;;;7.28;5.40;;;4.60;99.90;;;;;;4884331;28;22524;-48
2024/03/27 05:08:56;;;;;;;7.30;5.45;;;4.60;99.90;;;;;;4940488;28;20031;-49
2024/03/27 05:11:21;;;;;;;6.13;4.78;;;4.50;99.90;;;;;;4881541;28;20037;-51
2024/03/27 05:13:47;;;;;;;7.90;5.15;;;4.50;99.90;;;;;;4892958;28;20037;-59
2024/03/27 05:16:16;;;;;;;6.57;4.85;;;4.50;99.90;;;;;;5083649;23;20077;-45
2024/03/27 05:18:41;;;;;;;8.10;4.90;;;4.50;99.90;;;;;;4880610;28;20025;-45
2024/03/27 05:21:08;;;;;;;6.60;4.93;;;4.40;99.90;;;;;;4938789;28;20045;-45
2024/03/27 05:23:34;;;;;;;6.97;5.25;;;4.40;99.90;;;;;;4877640;28;20033;-45
2024/03/27 05:26:03;;;;;;;8.43;5.60;;;4.40;99.90;;;;;;4877479;28;21405;-45
2024/03/27 05:28:29;;;;;;;8.32;5.78;;;4.40;99.90;;;;;;4925195;28;20149;-46
2024/03/27 05:30:54;;;;;;;7.72;5.40;;;4.40;99.90;;;;;;4862191;28;20099;-45
2024/03/27 05:33:20;;;;;;;7.82;5.57;;;4.40;99.90;;;;;;4871727;28;20122;-56
2024/03/27 05:35:46;;;;;;;5.85;5.05;;;4.50;99.90;;;;;;4978940;28;20105;-48
2024/03/27 05:38:12;;;;;;;5.78;5.13;;;4.50;99.90;;;;;;4922982;28;20093;-48
2024/03/27 05:40:38;;;;;;;6.40;5.18;;;4.50;99.90;;;;;;4916857;28;20030;-46
2024/03/27 05:43:04;;;;;;;7.40;5.55;;;4.50;99.90;;;;;;4919025;28;20114;-46
2024/03/27 05:45:29;;;;;;;9.27;5.97;;;4.50;99.90;;;;;;4914138;28;21592;-46
2024/03/27 05:47:55;;;;;;;7.25;5.80;;;4.50;99.90;;;;;;4972844;28;20034;-47
2024/03/27 05:50:21;;;;;;;7.30;5.35;;;4.50;99.90;;;;;;4921761;28;20034;-45
2024/03/27 05:52:46;;;;;;;7.80;5.82;;;4.60;99.90;;;;;;4915831;28;20089;-50
2024/03/27 05:55:12;;;;;;;7.65;5.28;;;4.60;99.90;;;;;;4910858;28;20490;-48
2024/03/27 05:57:38;;;;;;;8.00;5.60;;;4.70;99.90;;;;;;4915057;28;21531;-45
2024/03/27 06:00:08;;;;;;;7.30;5.80;;;4.70;99.90;;;;;;4971588;28;20030;-47
2024/03/27 06:02:34;;;;;;;9.88;6.25;;;4.70;99.90;;;;;;4916255;28;20114;-45
2024/03/27 06:05:00;;;;;;;9.98;5.90;;;4.80;99.90;;;;;;4905197;28;20030;-57
2024/03/27 06:07:25;;;;;;;7.78;5.75;;;4.80;99.90;;;;;;4908240;28;20521;-49
2024/03/27 06:09:51;;;;;;;9.82;5.43;;;4.80;99.90;;;;;;4900338;28;20057;-44
2024/03/27 06:12:17;;;;;;;6.43;5.38;;;4.90;99.90;;;;;;4939323;28;20418;-57
2024/03/27 06:14:42;;;;;;;7.07;5.85;;;4.90;99.90;;;;;;4939001;28;20057;-48
2024/03/27 06:17:08;;;;;;;7.53;5.63;;;5.00;99.90;;;;;;4909753;28;20113;-44
2024/03/27 06:19:33;;;;;;;10.00;5.97;;;5.00;99.90;;;;;;4900667;28;20194;-49
2024/03/27 06:21:59;;;;;;;7.40;5.53;;;5.00;99.90;;;;;;4903533;28;20030;-47
2024/03/27 06:24:24;;;;;;;7.40;5.80;;;5.10;99.90;;;;;;4958453;28;20034;-47
2024/03/27 06:26:51;;;;;;;6.70;5.32;;;5.10;99.90;;;;;;4965217;28;20077;-49
2024/03/27 06:29:17;;;;;;;6.60;5.38;;;5.20;99.90;;;;;;4959883;28;20072;-50
2024/03/27 06:31:42;;;;;;;7.30;5.90;;;5.30;99.90;;;;;;4941967;28;20443;-44
2024/03/27 06:34:08;;;;;;;9.38;6.13;;;5.30;99.90;;;;;;4957652;28;20037;-48
2024/03/27 06:36:33;;;;;;;7.28;5.60;;;5.40;99.90;;;;;;4945201;28;20054;-47
2024/03/27 06:39:00;;;;;;;9.48;6.00;;;5.40;99.90;;;;;;4956167;28;21291;-48
2024/03/27 06:41:26;;;;;;;7.85;5.30;;;5.50;99.90;;;;;;4937351;28;20026;-45
2024/03/27 06:43:51;;;;;;;7.60;5.82;;;5.50;99.90;;;;;;4933287;28;20451;-48
2024/03/27 06:46:20;;;;;;;8.50;5.45;;;5.60;99.90;;;;;;4906851;28;20678;-48
2024/03/27 06:48:56;;;;;;;6.18;5.15;;;5.70;99.90;;;;;;4943601;28;20077;-49
2024/03/27 06:51:22;;;;;;;6.32;5.40;;;5.80;99.90;;;;;;4926101;28;20066;-47
2024/03/27 06:53:48;;;;;;;7.53;5.78;;;5.90;99.90;;;;;;4949569;28;20053;-48
2024/03/27 06:56:14;;;;;;;6.65;5.53;;;6.00;99.90;;;;;;4918486;28;20026;-45
2024/03/27 06:58:39;;;;;;;6.75;4.97;;;6.10;99.90;;;;;;4912681;28;20022;-49
2024/03/27 07:01:05;;;;;;;6.60;5.55;;;6.20;99.90;;;;;;4953149;28;20018;-55
2024/03/27 07:03:33;;;;;;;7.10;5.07;;;6.40;99.90;;;;;;4945326;28;20033;-45
2024/03/27 07:05:59;;;;;;;6.38;5.10;;;6.50;99.90;;;;;;4947260;28;22153;-45
2024/03/27 07:08:25;;;;;;;7.28;5.38;;;6.70;99.90;;;;;;4965794;28;20500;-48
2024/03/27 07:11:01;;;;;;;6.78;5.28;;;6.70;99.90;;;;;;4944754;28;20022;-45
2024/03/27 07:13:27;;;;;;;7.53;5.45;;;6.90;99.90;;;;;;4942355;28;20112;-45
2024/03/27 07:15:54;;;;;;;6.18;5.30;;;6.90;99.90;;;;;;4959190;28;20029;-48
2024/03/27 07:18:20;;;;;;;6.32;5.10;;;7.00;99.90;;;;;;4941367;28;20078;-45
2024/03/27 07:20:53;;;;;;;6.72;5.57;;;7.10;99.90;;;;;;4940656;28;20113;-54
2024/03/27 07:23:20;;;;;;;8.85;5.43;;;7.20;99.90;;;;;;4963992;28;20034;-45
2024/03/27 07:25:45;;;;;;;8.52;5.38;;;7.30;99.90;;;;;;4942989;28;20022;-45
2024/03/27 07:28:11;;;;;;;8.45;5.15;;;7.40;99.90;;;;;;4948114;28;20692;-54
2024/03/27 07:30:37;;;;;;;5.60;4.75;;;7.50;99.90;;;;;;4960510;28;20026;-45
2024/03/27 07:33:03;;;;;;;6.43;5.03;;;7.70;99.90;;;;;;4936877;28;21207;-48
2024/03/27 07:35:28;;;;;;;6.43;5.07;;;7.90;99.90;;;;;;4967351;28;20045;-47
2024/03/27 07:37:54;;;;;;;7.30;5.35;;;8.00;99.90;;;;;;4937867;28;20772;-48
2024/03/27 07:40:20;;;;;;;7.72;5.07;;;8.20;99.90;;;;;;4939445;28;20575;-46
2024/03/27 07:42:46;;;;;;;6.03;5.13;;;8.40;99.90;;;;;;4960051;28;20036;-48
2024/03/27 07:45:11;;;;;;;6.38;5.13;;;8.50;99.90;;;;;;4937990;28;20034;-46
2024/03/27 07:47:38;;;;;;;6.00;5.03;;;8.70;99.90;;;;;;4961317;28;20054;-56
2024/03/27 07:50:07;;;;;;;6.47;5.22;;;8.80;99.90;;;;;;4943875;28;20152;-45
2024/03/27 07:52:33;;;;;;;7.68;5.75;;;8.90;99.90;;;;;;4941066;28;22206;-48
2024/03/27 07:54:59;;;;;;;8.13;5.40;;;9.00;99.90;;;;;;4955985;28;20030;-49
2024/03/27 07:57:24;;;;;;;6.88;5.55;;;9.10;99.90;;;;;;4930435;28;20060;-45
2024/03/27 07:59:50;;;;;;;7.70;5.40;;;9.20;99.90;;;;;;4932344;28;20026;-44
2024/03/27 08:02:15;;;;;;;5.38;4.78;;;9.20;99.90;;;;;;4962754;28;20093;-44
2024/03/27 08:04:41;;;;;;;7.25;5.22;;;9.40;99.90;;;;;;4930316;28;20201;-45
2024/03/27 08:07:06;;;;;;;8.02;5.15;;;9.50;99.90;;;;;;4955828;28;20124;-46
2024/03/27 08:09:32;;;;;;;7.70;4.93;;;9.70;99.90;;;;;;4929230;28;20054;-47
2024/03/27 08:11:58;;;;;;;8.23;5.70;;;9.80;99.90;;;;;;4930644;28;21244;-46
2024/03/27 08:14:23;;;;;;;8.93;5.38;;;10.00;99.90;;;;;;4958161;28;20022;-46
2024/03/27 08:16:49;;;;;;;6.10;5.10;;;10.10;99.90;;;;;;4929126;28;20078;-46
2024/03/27 08:19:15;;;;;;;5.35;4.85;;;10.20;99.90;;;;;;4940368;28;20033;-57
2024/03/27 08:21:41;;;;;;;6.22;4.68;;;10.30;99.90;;;;;;4940340;28;20031;-47
2024/03/27 08:24:06;;;;;;;5.57;5.03;;;10.40;99.90;;;;;;4926066;28;21275;-47
2024/03/27 08:26:33;;;;;;;6.72;4.78;;;10.50;99.90;;;;;;4951939;28;20040;-47
2024/03/27 08:28:59;;;;;;;8.48;5.35;;;10.60;99.90;;;;;;4925179;28;20438;-50
2024/03/27 08:31:26;;;;;;;5.88;4.50;;;10.80;99.90;;;;;;4959100;28;20030;-44
2024/03/27 08:33:53;;;;;;;9.52;5.22;;;10.90;99.90;;;;;;4982433;28;20026;-47
2024/03/27 08:36:32;;;;;;;6.95;4.95;;;11.10;99.90;;;;;;4971383;28;20053;-46
2024/03/27 08:38:58;;;;;;;5.50;4.50;;;11.20;99.90;;;;;;4968417;28;20027;-46
2024/03/27 08:41:24;;;;;;;6.93;4.70;;;11.40;99.90;;;;;;4982664;28;20108;-47
2024/03/27 08:43:51;;;;;;;6.13;4.55;;;11.60;99.90;;;;;;4968786;28;20062;-46
2024/03/27 08:46:16;;;;;;;5.88;4.18;;;11.70;99.90;;;;;;4970982;28;20027;-44
2024/03/27 08:48:42;;;;;;;6.07;4.50;;;11.70;99.90;;;;;;4979240;28;20026;-45
2024/03/27 08:51:08;;;;;;;5.65;4.85;;;11.80;99.90;;;;;;4973269;28;20030;-48
2024/03/27 08:53:35;;;;;;;8.85;5.13;;;11.90;99.90;;;;;;4981641;28;20036;-49
2024/03/27 08:56:06;;;;;;;6.03;4.93;;;12.00;99.90;;;;;;4965209;28;20414;-44
2024/03/27 08:58:32;;;;;;;4.45;3.53;;;12.00;99.90;;;;;;4972131;28;21351;-50
2024/03/27 09:00:58;;;;;;;9.32;5.10;;;12.10;99.90;;;;;;4973268;28;20525;-53
2024/03/27 09:03:23;;;;;;;5.50;4.53;;;12.10;99.90;;;;;;4962563;28;20097;-50
2024/03/27 09:05:49;;;;;;;7.15;4.50;;;12.30;99.90;;;;;;4966359;28;20541;-46
2024/03/27 09:08:15;;;;;;;8.55;4.28;;;12.60;99.90;;;;;;4979423;28;20026;-46
2024/03/27 09:10:43;;;;;;;5.32;4.65;;;12.80;99.90;;;;;;4965573;28;20065;-49
2024/03/27 09:13:08;;;;;;;6.32;4.30;;;13.10;99.90;;;;;;4976599;28;20489;-51
2024/03/27 09:15:34;;;;;;;7.50;5.20;;;13.30;99.90;;;;;;4965723;28;20029;-45
2024/03/27 09:18:00;;;;;;;7.65;4.78;;;13.50;99.90;;;;;;4962865;28;20041;-51
2024/03/27 09:20:26;;;;;;;5.50;4.68;;;13.70;99.90;;;;;;4978391;28;20026;-48
2024/03/27 09:22:51;;;;;;;4.43;4.03;;;13.80;99.90;;;;;;4964064;28;20030;-52
2024/03/27 09:25:17;;;;;;;4.82;4.35;;;13.70;99.90;;;;;;4962909;28;20122;-50
2024/03/27 09:27:43;;;;;;;7.47;4.30;;;13.80;99.90;;;;;;4969868;28;20045;-51
2024/03/27 09:30:09;;;;;;;5.75;4.20;;;13.90;99.90;;;;;;4964702;28;20109;-49
2024/03/27 09:32:35;;;;;;;5.30;3.65;;;13.90;99.90;;;;;;4976835;28;20076;-46
2024/03/27 09:35:00;;;;;;;8.02;4.35;;;14.00;99.90;;;;;;4962297;28;20053;-48
2024/03/27 09:37:26;;;;;;;6.07;4.03;;;14.10;99.90;;;;;;4960237;28;20027;-50
2024/03/27 09:39:52;;;;;;;8.88;4.35;;;14.20;99.90;;;;;;4975509;28;20022;-47
2024/03/27 09:42:21;;;;;;;5.18;4.03;;;14.30;99.90;;;;;;4960262;28;20458;-48
2024/03/27 09:44:46;;;;;;;5.90;4.18;;;14.50;99.90;;;;;;4961720;28;20018;-50
2024/03/27 09:47:14;;;;;;;5.93;4.28;;;14.50;99.90;;;;;;4974370;28;20048;-48
2024/03/27 09:49:39;;;;;;;7.07;4.20;;;14.60;99.40;;;;;;4958262;28;20028;-48
2024/03/27 09:52:09;;;;;;;7.07;4.50;;;14.60;99.90;;;;;;4972694;28;20026;-48
2024/03/27 09:54:37;;;;;;;8.95;5.88;;;14.80;99.60;;;;;;4962495;28;20030;-50
2024/03/27 09:57:03;;;;;;;5.53;4.43;;;14.90;99.90;;;;;;4958042;28;20030;-51
2024/03/27 09:59:29;;;;;;;6.45;3.97;;;14.90;99.90;;;;;;4976799;28;20448;-46
2024/03/27 10:02:05;;;;;;;5.80;4.22;;;14.90;99.80;;;;;;4957697;28;20605;-46
2024/03/27 10:04:30;;;;;;;6.75;4.25;;;14.90;97.90;;;;;;4956502;28;20049;-47
2024/03/27 10:06:56;;;;;;;3.60;3.05;;;14.90;99.10;;;;;;4971916;28;20125;-45
2024/03/27 10:09:22;;;;;;;5.95;4.22;;;15.10;98.60;;;;;;4956362;28;20022;-44
2024/03/27 10:11:49;;;;;;;5.65;4.15;;;15.20;99.00;;;;;;4960721;28;20383;-54
2024/03/27 10:14:16;;;;;;;5.13;3.70;;;15.30;97.90;;;;;;4969956;28;20653;-47
2024/03/27 10:16:42;;;;;;;6.28;4.30;;;15.30;96.80;;;;;;4952018;28;20031;-49
2024/03/27 10:19:08;;;;;;;4.20;3.28;;;15.30;97.10;;;;;;4969781;28;20026;-46
2024/03/27 10:21:34;;;;;;;5.72;3.92;;;15.20;96.90;;;;;;4959478;28;20506;-46
2024/03/27 10:24:00;;;;;;;6.50;4.18;;;15.30;96.80;;;;;;4956571;28;21103;-47
2024/03/27 10:26:32;;;;;;;5.53;3.70;;;15.50;96.90;;;;;;4968188;28;20045;-48
2024/03/27 10:28:57;;;;;;;4.65;3.50;;;15.50;97.60;;;;;;4952302;28;20049;-49
2024/03/27 10:31:27;;;;;;;6.05;4.00;;;15.60;96.70;;;;;;4957624;28;20034;-47
2024/03/27 10:33:53;;;;;;;4.88;3.88;;;15.70;96.60;;;;;;4970713;28;20113;-47
2024/03/27 10:36:26;;;;;;;6.78;4.10;;;15.80;96.10;;;;;;4953550;28;20113;-44
2024/03/27 10:38:58;;;;;;;4.38;3.45;;;15.90;95.80;;;;;;4946272;28;20167;-47
2024/03/27 10:41:27;;;;;;;6.30;4.35;;;15.90;96.30;;;;;;4966936;28;20060;-49
2024/03/27 10:43:57;;;;;;;6.20;3.78;;;15.90;95.10;;;;;;4951096;28;20080;-47
2024/03/27 10:46:24;;;;;;;4.75;3.63;;;15.90;96.00;;;;;;4951073;28;20410;-51
2024/03/27 10:49:00;;;;;;;5.07;3.85;;;15.90;96.10;;;;;;4966800;28;20117;-45
2024/03/27 10:51:26;;;;;;;7.55;3.63;;;15.90;95.60;;;;;;4952141;28;20118;-45
2024/03/27 10:53:54;;;;;;;9.85;4.35;;;15.80;94.40;;;;;;4950209;28;20121;-46
2024/03/27 10:56:20;;;;;;;5.95;4.25;;;15.70;94.30;;;;;;4969533;28;20662;-45
2024/03/27 10:58:47;;;;;;;6.07;4.25;;;15.50;96.20;;;;;;4951708;28;20033;-48
2024/03/27 11:01:13;;;;;;;5.70;3.97;;;15.50;94.90;;;;;;4959767;28;20471;-48
2024/03/27 11:03:42;;;;;;;5.85;3.65;;;15.50;94.50;;;;;;4959989;28;20041;-48
2024/03/27 11:06:14;;;;;;;7.03;4.57;;;15.60;95.10;;;;;;4948802;28;20034;-46
2024/03/27 11:08:42;;;;;;;3.35;3.00;;;15.70;95.20;;;;;;4967896;28;20026;-47
2024/03/27 11:11:14;;;;;;;6.72;3.78;;;15.80;95.40;;;;;;4954806;28;20034;-52
2024/03/27 11:13:50;;;;;;;5.05;3.35;;;15.80;94.60;;;;;;4948312;28;21918;-50
2024/03/27 11:16:21;;;;;;;5.05;3.53;;;15.80;94.10;;;;;;4970613;23;20348;-85
2024/03/27 11:18:46;;;;;;;6.93;3.45;;;15.90;94.10;;;;;;5005793;28;20030;-84
2024/03/27 11:21:13;;;;;;;6.80;3.97;;;16.00;94.90;;;;;;4997500;28;20017;-84
2024/03/27 11:23:41;;;;;;;5.22;3.45;;;16.10;95.20;;;;;;5010814;28;20759;-86
2024/03/27 11:26:07;;;;;;;4.68;3.70;;;16.30;94.90;;;;;;4989516;28;20415;-86
2024/03/27 11:28:33;;;;;;;5.10;3.33;;;16.50;94.70;;;;;;4980567;28;20041;-85
2024/03/27 11:30:58;;;;;;;6.97;3.28;;;16.60;93.30;;;;;;5002628;28;20281;-84
2024/03/27 11:33:24;;;;;;;4.95;3.33;;;16.60;94.20;;;;;;4971195;28;20105;-84
2024/03/27 11:35:53;;;;;;;5.07;3.40;;;16.60;94.00;;;;;;4977664;28;20420;-85
2024/03/27 11:38:21;;;;;;;4.22;2.88;;;16.60;92.30;;;;;;4986647;28;20022;-84
2024/03/27 11:40:50;;;;;;;4.45;3.33;;;16.60;92.60;;;;;;4971961;28;20033;-84
2024/03/27 11:43:17;;;;;;;5.38;3.05;;;16.50;92.70;;;;;;4981579;28;20033;-82
2024/03/27 11:45:43;;;;;;;5.50;3.70;;;16.60;92.90;;;;;;4982548;28;20033;-85
2024/03/27 11:48:08;;;;;;;5.75;3.83;;;16.60;94.10;;;;;;4974021;28;20022;-84
2024/03/27 11:50:34;;;;;;;4.45;3.58;;;16.60;92.80;;;;;;4990408;28;20141;-84
2024/03/27 11:53:00;;;;;;;4.90;3.28;;;16.50;93.90;;;;;;4974852;28;20437;-84
2024/03/27 11:55:25;;;;;;;4.20;3.17;;;16.40;93.00;;;;;;4971568;28;20030;-85
2024/03/27 11:57:51;;;;;;;7.07;3.65;;;16.40;93.80;;;;;;4994206;28;20021;-84
2024/03/27 12:00:18;;;;;;;7.90;3.88;;;16.40;94.00;;;;;;4972761;28;20101;-84
2024/03/27 12:02:43;;;;;;;4.10;3.25;;;16.40;94.30;;;;;;4988396;28;20025;-84
2024/03/27 12:05:09;;;;;;;4.25;3.33;;;16.40;93.50;;;;;;4980389;28;20076;-84
2024/03/27 12:07:36;;;;;;;6.07;4.05;;;16.40;93.40;;;;;;4969040;28;20422;-83
2024/03/27 12:10:09;;;;;;;4.53;3.47;;;16.40;93.60;;;;;;5007626;28;20518;-83
2024/03/27 12:12:35;;;;;;;4.95;3.05;;;16.40;93.80;;;;;;4988713;28;20225;-83
2024/03/27 12:15:01;;;;;;;7.10;3.35;;;16.50;94.50;;;;;;4988652;28;20042;-84
2024/03/27 12:17:32;;;;;;;5.70;3.63;;;16.50;94.60;;;;;;4991649;28;20057;-84
2024/03/27 12:20:03;;;;;;;4.07;3.33;;;16.50;93.60;;;;;;4988888;28;20030;-84
2024/03/27 12:22:29;;;;;;;5.18;3.40;;;16.50;94.20;;;;;;4987139;28;20052;-85
2024/03/27 12:24:55;;;;;;;5.68;3.45;;;16.60;94.00;;;;;;5009006;28;20530;-84
2024/03/27 12:27:32;;;;;;;4.38;2.90;;;16.70;94.60;;;;;;4992608;28;20061;-84
2024/03/27 12:29:58;;;;;;;6.18;3.65;;;16.80;93.70;;;;;;4989967;28;20042;-84
2024/03/27 12:32:27;;;;;;;6.30;3.25;;;16.80;93.00;;;;;;4994787;28;20092;-86
2024/03/27 12:34:53;;;;;;;5.00;3.50;;;16.80;93.70;;;;;;4998266;28;20100;-84
2024/03/27 12:37:19;;;;;;;4.93;3.25;;;16.80;93.60;;;;;;5001340;28;20113;-82
2024/03/27 12:39:45;;;;;;;5.28;3.80;;;16.80;94.70;;;;;;5008931;28;20497;-84
2024/03/27 12:42:11;;;;;;;5.55;3.70;;;16.80;94.30;;;;;;4992590;28;20018;-84
2024/03/27 12:44:37;;;;;;;7.00;4.20;;;16.90;92.90;;;;;;4988931;28;20022;-84
2024/03/27 12:47:03;;;;;;;3.80;3.20;;;17.00;93.70;;;;;;4989462;28;20363;-84
2024/03/27 12:49:29;;;;;;;5.40;3.47;;;17.10;94.00;;;;;;4995490;28;20017;-84